Time;durP1;ratioP1;P1;durP2;ratioP2;P2;SDS_P1;SDS_P2;PMS_P1;PMS_P2;Temp;Humidity;BMP_temperature;BMP_pressure;BME280_temperature;BME280_humidity;BME280_pressure;Samples;Min_cycle;Max_cycle;Signal;HPM_P1;HPM_P2
2023/09/09 00:01:39;;;;;;;4.18;3.78;;;26.90;57.10;;;;;;5013801;28;20120;-63
2023/09/09 00:04:04;;;;;;;5.00;4.40;;;26.90;57.10;;;;;;5034589;28;20078;-63
2023/09/09 00:06:30;;;;;;;4.63;3.90;;;26.90;57.70;;;;;;5016102;28;20044;-63
2023/09/09 00:08:56;;;;;;;4.68;3.92;;;26.90;57.10;;;;;;5040621;28;20029;-64
2023/09/09 00:11:22;;;;;;;4.53;3.63;;;26.90;57.10;;;;;;5034190;28;20036;-65
2023/09/09 00:13:48;;;;;;;5.47;3.95;;;26.90;57.10;;;;;;5035010;28;20029;-64
2023/09/09 00:16:14;;;;;;;4.65;4.00;;;26.90;57.10;;;;;;5033964;28;20425;-64
2023/09/09 00:18:40;;;;;;;4.40;4.00;;;26.90;57.10;;;;;;5038445;28;20112;-64
2023/09/09 00:21:06;;;;;;;4.35;3.95;;;26.90;57.10;;;;;;5031728;28;20108;-63
2023/09/09 00:23:32;;;;;;;5.63;4.05;;;26.90;57.20;;;;;;5032714;28;20063;-62
2023/09/09 00:25:58;;;;;;;4.70;3.80;;;26.90;57.20;;;;;;5030825;28;20022;-66
2023/09/09 00:28:23;;;;;;;4.82;3.85;;;26.90;57.20;;;;;;5029044;28;20034;-63
2023/09/09 00:30:50;;;;;;;4.13;3.72;;;26.90;57.20;;;;;;5029076;28;21719;-64
2023/09/09 00:33:16;;;;;;;4.22;3.83;;;26.90;57.20;;;;;;5031346;28;20017;-64
2023/09/09 00:35:42;;;;;;;4.78;4.05;;;26.90;57.20;;;;;;5008293;28;20114;-65
2023/09/09 00:38:11;;;;;;;4.10;3.70;;;26.90;57.80;;;;;;5006856;28;20037;-63
2023/09/09 00:40:37;;;;;;;4.50;4.05;;;26.90;57.20;;;;;;5015084;28;20036;-64
2023/09/09 00:43:03;;;;;;;4.15;3.78;;;26.90;57.20;;;;;;5028500;28;20087;-64
2023/09/09 00:45:29;;;;;;;4.15;3.75;;;26.90;57.20;;;;;;5028290;28;20033;-64
2023/09/09 00:47:56;;;;;;;3.85;3.33;;;26.90;57.20;;;;;;5038763;28;20130;-64
2023/09/09 00:50:24;;;;;;;4.32;3.60;;;26.90;57.30;;;;;;4993628;28;20034;-67
2023/09/09 00:52:50;;;;;;;4.80;4.00;;;26.90;57.20;;;;;;5010247;28;20053;-65
2023/09/09 00:55:16;;;;;;;6.35;4.32;;;26.90;57.30;;;;;;5025920;28;20076;-64
2023/09/09 00:57:41;;;;;;;4.65;4.10;;;26.90;57.30;;;;;;5027896;28;21858;-65
2023/09/09 01:00:11;;;;;;;4.93;4.10;;;26.90;57.30;;;;;;5029176;28;20052;-64
2023/09/09 01:02:40;;;;;;;4.35;3.95;;;26.90;57.90;;;;;;5025721;28;20045;-64
2023/09/09 01:05:08;;;;;;;5.43;4.20;;;26.90;57.90;;;;;;5026891;28;20037;-66
2023/09/09 01:07:47;;;;;;;5.47;3.97;;;26.90;57.30;;;;;;5009064;28;20037;-62
2023/09/09 01:10:16;;;;;;;4.78;4.00;;;26.80;57.20;;;;;;5029959;28;20116;-66
2023/09/09 01:12:42;;;;;;;4.35;3.95;;;26.80;57.20;;;;;;5007208;28;20117;-64
2023/09/09 01:15:09;;;;;;;4.35;3.80;;;26.80;57.20;;;;;;5031235;28;20034;-65
2023/09/09 01:17:36;;;;;;;4.70;4.20;;;26.80;57.20;;;;;;5025282;28;20196;-65
2023/09/09 01:20:07;;;;;;;5.07;4.40;;;26.80;57.20;;;;;;5027543;28;20297;-64
2023/09/09 01:22:38;;;;;;;4.40;3.97;;;26.80;57.20;;;;;;5027998;28;20025;-63
2023/09/09 01:25:05;;;;;;;4.53;3.58;;;26.80;57.20;;;;;;5025623;28;20074;-65
2023/09/09 01:27:31;;;;;;;5.72;3.90;;;26.80;57.20;;;;;;5027139;28;20400;-63
2023/09/09 01:29:57;;;;;;;4.25;3.83;;;26.80;57.20;;;;;;5004824;28;21747;-64
2023/09/09 01:32:24;;;;;;;4.25;3.58;;;26.80;57.10;;;;;;5029740;28;20029;-63
2023/09/09 01:34:51;;;;;;;4.75;3.88;;;26.80;57.20;;;;;;5026601;28;20025;-63
2023/09/09 01:37:17;;;;;;;4.53;3.55;;;26.80;57.10;;;;;;5027770;28;20025;-63
2023/09/09 01:39:44;;;;;;;4.18;3.78;;;26.80;57.20;;;;;;5033467;28;20033;-63
2023/09/09 01:42:10;;;;;;;4.47;4.07;;;26.80;57.20;;;;;;5013629;28;20033;-64
2023/09/09 01:44:37;;;;;;;4.10;3.70;;;26.80;57.20;;;;;;5005459;28;20108;-62
2023/09/09 01:47:03;;;;;;;3.72;3.30;;;26.70;57.10;;;;;;5017083;28;20037;-64
2023/09/09 01:49:29;;;;;;;4.07;3.70;;;26.70;57.10;;;;;;5007427;28;20033;-66
2023/09/09 01:51:55;;;;;;;4.20;3.80;;;26.70;57.10;;;;;;5024687;28;20072;-63
2023/09/09 01:54:21;;;;;;;4.03;3.63;;;26.70;57.10;;;;;;5032025;28;20022;-65
2023/09/09 01:56:46;;;;;;;4.57;3.75;;;26.70;57.20;;;;;;5029842;28;20037;-65
2023/09/09 01:59:12;;;;;;;4.63;4.22;;;26.70;57.20;;;;;;5012582;28;20447;-63
2023/09/09 02:01:38;;;;;;;4.07;3.67;;;26.70;57.10;;;;;;5030202;28;20079;-65
2023/09/09 02:04:04;;;;;;;4.20;3.63;;;26.70;57.10;;;;;;5016515;28;20041;-63
2023/09/09 02:06:30;;;;;;;4.18;3.58;;;26.70;57.10;;;;;;5011487;28;20021;-65
2023/09/09 02:08:56;;;;;;;4.60;4.18;;;26.70;57.10;;;;;;5017002;28;20044;-63
2023/09/09 02:11:22;;;;;;;4.32;3.83;;;26.70;57.20;;;;;;5033962;28;20341;-64
2023/09/09 02:13:48;;;;;;;4.40;4.00;;;26.70;57.20;;;;;;5034610;28;20029;-64
2023/09/09 02:16:16;;;;;;;4.65;3.70;;;26.70;57.20;;;;;;5014667;28;20405;-65
2023/09/09 02:18:42;;;;;;;4.95;3.85;;;26.70;57.20;;;;;;5033189;28;20421;-67
2023/09/09 02:21:08;;;;;;;4.43;3.85;;;26.70;57.20;;;;;;5027877;28;20381;-64
2023/09/09 02:23:34;;;;;;;5.70;4.00;;;26.70;57.20;;;;;;5029420;28;20025;-64
2023/09/09 02:26:00;;;;;;;4.35;3.80;;;26.70;57.20;;;;;;5026678;28;20021;-65
2023/09/09 02:28:26;;;;;;;4.38;3.97;;;26.70;57.20;;;;;;5009052;28;20413;-63
2023/09/09 02:30:51;;;;;;;4.40;4.00;;;26.60;57.10;;;;;;5026732;28;20072;-63
2023/09/09 02:33:17;;;;;;;4.30;3.80;;;26.60;57.10;;;;;;5006697;28;20030;-64
2023/09/09 02:35:44;;;;;;;4.10;3.70;;;26.60;57.10;;;;;;5028173;28;20325;-66
2023/09/09 02:38:10;;;;;;;5.07;3.88;;;26.60;57.00;;;;;;5029552;28;20458;-64
2023/09/09 02:40:36;;;;;;;4.30;3.90;;;26.60;57.00;;;;;;5013265;28;20030;-64
2023/09/09 02:43:02;;;;;;;4.40;3.75;;;26.60;57.00;;;;;;5016103;28;21712;-63
2023/09/09 02:45:28;;;;;;;5.13;3.75;;;26.60;57.00;;;;;;5007644;28;20026;-64
2023/09/09 02:47:54;;;;;;;4.13;3.70;;;26.60;57.10;;;;;;4999298;28;20072;-64
2023/09/09 02:50:20;;;;;;;5.03;4.10;;;26.60;57.00;;;;;;4991552;28;20489;-64
2023/09/09 02:52:50;;;;;;;4.30;3.90;;;26.60;57.00;;;;;;4982527;28;20960;-63
2023/09/09 02:55:16;;;;;;;4.40;3.90;;;26.60;57.00;;;;;;4984706;28;20727;-65
2023/09/09 02:57:46;;;;;;;3.97;3.58;;;26.60;57.00;;;;;;4984767;28;20442;-64
2023/09/09 03:00:13;;;;;;;4.60;4.20;;;26.60;57.00;;;;;;4993021;28;20022;-64
2023/09/09 03:02:42;;;;;;;4.15;3.75;;;26.60;57.00;;;;;;4987126;28;20045;-63
2023/09/09 03:05:09;;;;;;;4.35;3.80;;;26.60;57.00;;;;;;4986713;28;20106;-65
2023/09/09 03:07:35;;;;;;;4.35;3.95;;;26.60;57.00;;;;;;5006678;28;20034;-64
2023/09/09 03:10:02;;;;;;;4.47;4.07;;;26.60;57.00;;;;;;4993071;28;20115;-63
2023/09/09 03:12:29;;;;;;;4.50;3.80;;;26.60;57.00;;;;;;4979171;28;20449;-64
2023/09/09 03:14:54;;;;;;;4.32;3.92;;;26.60;57.00;;;;;;4989414;28;20037;-64
2023/09/09 03:17:21;;;;;;;4.00;3.60;;;26.60;57.00;;;;;;4988693;28;20022;-63
2023/09/09 03:19:48;;;;;;;4.20;3.65;;;26.60;57.00;;;;;;4989983;28;20052;-65
2023/09/09 03:22:13;;;;;;;5.63;3.95;;;26.60;57.00;;;;;;4991264;28;20042;-63
2023/09/09 03:24:39;;;;;;;4.18;3.78;;;26.60;56.90;;;;;;4988116;28;20104;-64
2023/09/09 03:27:05;;;;;;;4.50;4.10;;;26.60;57.00;;;;;;4994258;28;20062;-64
2023/09/09 03:29:31;;;;;;;3.80;3.40;;;26.50;56.90;;;;;;4994925;28;20061;-65
2023/09/09 03:31:57;;;;;;;4.00;3.60;;;26.50;56.90;;;;;;4994917;28;20094;-64
2023/09/09 03:34:23;;;;;;;4.72;3.50;;;26.50;56.90;;;;;;4993601;28;20022;-63
2023/09/09 03:36:49;;;;;;;4.53;3.90;;;26.50;56.80;;;;;;4995327;28;20141;-65
2023/09/09 03:39:15;;;;;;;4.78;4.00;;;26.50;56.80;;;;;;4997355;28;20042;-64
2023/09/09 03:41:41;;;;;;;4.85;3.83;;;26.50;56.90;;;;;;4991954;28;20050;-66
2023/09/09 03:44:07;;;;;;;4.95;4.45;;;26.50;56.90;;;;;;4992712;28;20438;-62
2023/09/09 03:46:33;;;;;;;3.75;3.40;;;26.50;56.90;;;;;;4992245;28;20136;-64
2023/09/09 03:49:00;;;;;;;4.45;3.60;;;26.50;56.90;;;;;;5027218;28;20049;-64
2023/09/09 03:51:26;;;;;;;4.25;3.80;;;26.40;56.80;;;;;;5025685;28;20034;-63
2023/09/09 03:53:52;;;;;;;4.20;3.80;;;26.50;56.90;;;;;;5011518;28;20092;-63
2023/09/09 03:56:19;;;;;;;4.53;3.75;;;26.50;56.90;;;;;;5020380;28;20425;-63
2023/09/09 03:58:45;;;;;;;4.90;4.43;;;26.50;56.90;;;;;;5024221;28;20101;-64
2023/09/09 04:01:12;;;;;;;4.30;3.60;;;26.50;56.90;;;;;;5019939;28;20333;-63
2023/09/09 04:03:39;;;;;;;5.40;4.43;;;26.40;56.80;;;;;;5028719;28;20401;-64
2023/09/09 04:06:12;;;;;;;4.38;3.97;;;26.50;56.90;;;;;;5022751;28;20073;-63
2023/09/09 04:08:40;;;;;;;4.65;4.13;;;26.40;56.80;;;;;;5039660;28;20026;-63
2023/09/09 04:11:07;;;;;;;4.50;4.10;;;26.40;56.80;;;;;;5027317;28;20350;-63
2023/09/09 04:13:37;;;;;;;4.15;3.75;;;26.40;56.80;;;;;;5026023;28;20220;-63
2023/09/09 04:16:04;;;;;;;5.00;4.53;;;26.50;56.90;;;;;;5024537;28;20064;-64
2023/09/09 04:18:30;;;;;;;4.30;3.90;;;26.40;56.80;;;;;;5042014;28;20049;-63
2023/09/09 04:20:56;;;;;;;4.85;4.13;;;26.40;56.80;;;;;;5021907;28;20440;-67
2023/09/09 04:23:22;;;;;;;4.55;4.00;;;26.40;56.70;;;;;;5024090;28;20112;-62
2023/09/09 04:25:48;;;;;;;4.60;4.20;;;26.40;57.40;;;;;;5023436;28;20026;-65
2023/09/09 04:28:14;;;;;;;4.70;4.30;;;26.40;56.70;;;;;;5014163;28;20248;-65
2023/09/09 04:30:42;;;;;;;4.95;4.10;;;26.40;56.70;;;;;;5010472;28;20037;-63
2023/09/09 04:33:11;;;;;;;4.03;3.63;;;26.40;56.70;;;;;;5012305;28;20033;-64
2023/09/09 04:35:41;;;;;;;4.25;3.85;;;26.40;56.70;;;;;;5006907;28;20060;-64
2023/09/09 04:38:08;;;;;;;4.60;4.20;;;26.40;56.70;;;;;;5006081;28;20099;-64
2023/09/09 04:40:34;;;;;;;4.75;4.28;;;26.40;56.70;;;;;;5037182;28;20048;-65
2023/09/09 04:43:00;;;;;;;4.93;3.95;;;26.40;56.70;;;;;;5036049;28;20038;-63
2023/09/09 04:45:26;;;;;;;5.80;4.20;;;26.40;56.70;;;;;;5008816;28;20026;-63
2023/09/09 04:47:52;;;;;;;4.88;3.90;;;26.40;56.70;;;;;;4993764;28;20042;-65
2023/09/09 04:50:19;;;;;;;4.32;3.92;;;26.40;56.70;;;;;;4996217;28;20057;-64
2023/09/09 04:52:46;;;;;;;5.00;4.45;;;26.30;56.60;;;;;;4996833;28;20043;-64
2023/09/09 04:55:12;;;;;;;5.28;4.78;;;26.40;56.70;;;;;;4992887;28;20413;-64
2023/09/09 04:57:39;;;;;;;5.30;4.53;;;26.30;56.60;;;;;;4989285;28;20124;-63
2023/09/09 05:00:07;;;;;;;5.05;4.55;;;26.30;56.70;;;;;;4991506;28;20027;-64
2023/09/09 05:02:34;;;;;;;5.45;4.80;;;26.30;56.80;;;;;;4988315;28;20152;-65
2023/09/09 05:05:04;;;;;;;5.45;4.75;;;26.30;56.80;;;;;;4982876;28;20052;-63
2023/09/09 05:07:34;;;;;;;5.28;4.78;;;26.30;56.90;;;;;;4981843;28;20410;-66
2023/09/09 05:10:04;;;;;;;5.43;4.93;;;26.30;56.90;;;;;;5005300;28;20080;-64
2023/09/09 05:12:31;;;;;;;5.38;4.88;;;26.30;57.00;;;;;;4990560;28;20022;-66
2023/09/09 05:14:58;;;;;;;5.55;4.93;;;26.30;57.00;;;;;;4986972;28;20026;-64
2023/09/09 05:17:24;;;;;;;5.28;4.75;;;26.30;57.00;;;;;;5001522;28;20120;-64
2023/09/09 05:19:50;;;;;;;5.50;5.00;;;26.30;57.00;;;;;;4996386;28;20037;-66
2023/09/09 05:22:16;;;;;;;5.57;4.85;;;26.30;57.00;;;;;;4985978;28;20029;-63
2023/09/09 05:24:43;;;;;;;5.78;5.18;;;26.30;57.00;;;;;;4999319;28;20055;-65
2023/09/09 05:27:09;;;;;;;4.93;4.50;;;26.30;57.00;;;;;;5002522;28;20030;-65
2023/09/09 05:29:35;;;;;;;5.03;4.53;;;26.30;57.00;;;;;;4997152;28;20060;-64
2023/09/09 05:32:01;;;;;;;5.38;4.72;;;26.30;57.00;;;;;;4989402;28;20026;-64
2023/09/09 05:34:27;;;;;;;5.45;4.70;;;26.30;57.00;;;;;;4996152;28;21703;-65
2023/09/09 05:36:52;;;;;;;5.53;4.85;;;26.30;57.00;;;;;;4991803;28;20030;-65
2023/09/09 05:39:19;;;;;;;4.97;4.47;;;26.30;56.90;;;;;;5001005;28;20030;-64
2023/09/09 05:41:45;;;;;;;5.63;5.03;;;26.30;56.90;;;;;;4996332;28;20028;-64
2023/09/09 05:44:12;;;;;;;6.03;5.40;;;26.30;56.90;;;;;;4996153;28;20497;-63
2023/09/09 05:46:38;;;;;;;5.97;5.30;;;26.30;56.90;;;;;;4986899;28;20069;-66
2023/09/09 05:49:04;;;;;;;5.93;5.32;;;26.30;56.90;;;;;;5012418;28;20053;-64
2023/09/09 05:51:30;;;;;;;6.15;5.55;;;26.20;56.80;;;;;;5015858;28;20036;-64
2023/09/09 05:53:56;;;;;;;5.80;5.30;;;26.20;56.90;;;;;;5018804;28;20113;-64
2023/09/09 05:56:22;;;;;;;6.25;5.65;;;26.20;57.00;;;;;;5023249;28;20149;-65
2023/09/09 05:58:48;;;;;;;6.90;6.30;;;26.30;57.00;;;;;;5025166;28;20017;-65
2023/09/09 06:01:14;;;;;;;8.07;6.60;;;26.20;57.00;;;;;;5022345;28;20126;-66
2023/09/09 06:03:42;;;;;;;6.25;5.65;;;26.30;57.10;;;;;;5023532;28;20531;-64
2023/09/09 06:06:09;;;;;;;7.05;6.35;;;26.20;57.10;;;;;;5030848;28;20466;-62
2023/09/09 06:08:35;;;;;;;7.43;6.65;;;26.30;57.30;;;;;;5015696;28;20426;-64
2023/09/09 06:11:01;;;;;;;7.15;6.45;;;26.20;57.20;;;;;;5018652;28;20041;-64
2023/09/09 06:13:29;;;;;;;7.32;6.63;;;26.30;57.40;;;;;;5024447;28;20052;-62
2023/09/09 06:15:55;;;;;;;7.53;6.82;;;26.20;57.40;;;;;;5020402;28;20353;-64
2023/09/09 06:18:21;;;;;;;7.47;6.78;;;26.20;57.40;;;;;;5016737;28;20029;-63
2023/09/09 06:20:48;;;;;;;6.78;5.97;;;26.30;57.60;;;;;;5018196;28;20041;-65
2023/09/09 06:23:15;;;;;;;6.80;6.15;;;26.30;57.60;;;;;;5017396;28;20318;-64
2023/09/09 06:25:42;;;;;;;6.70;6.10;;;26.30;57.70;;;;;;5033882;28;20053;-63
2023/09/09 06:28:08;;;;;;;7.47;6.78;;;26.30;57.70;;;;;;5025441;28;20073;-63
2023/09/09 06:30:34;;;;;;;6.95;6.35;;;26.30;57.80;;;;;;5004938;28;20029;-63
2023/09/09 06:33:03;;;;;;;7.30;6.60;;;26.30;57.90;;;;;;5014400;28;20148;-64
2023/09/09 06:35:29;;;;;;;7.75;6.95;;;26.30;57.90;;;;;;5028984;28;20053;-65
2023/09/09 06:37:56;;;;;;;7.07;6.38;;;26.30;58.00;;;;;;5014073;28;20029;-66
2023/09/09 06:40:22;;;;;;;7.53;6.72;;;26.30;58.10;;;;;;5012983;28;20025;-62
2023/09/09 06:42:48;;;;;;;7.05;6.35;;;26.30;58.10;;;;;;5009942;28;20056;-64
2023/09/09 06:45:16;;;;;;;6.88;6.18;;;26.30;58.20;;;;;;5007778;28;20026;-64
2023/09/09 06:47:45;;;;;;;8.70;6.40;;;26.30;58.30;;;;;;5013033;28;20112;-63
2023/09/09 06:50:11;;;;;;;7.00;6.40;;;26.30;58.30;;;;;;5028779;28;20049;-64
2023/09/09 06:52:38;;;;;;;7.60;6.78;;;26.30;58.40;;;;;;5027374;28;20038;-66
2023/09/09 06:55:06;;;;;;;7.15;6.45;;;26.30;58.40;;;;;;5028786;28;20314;-64
2023/09/09 06:57:32;;;;;;;8.73;7.25;;;26.30;58.50;;;;;;5027706;28;20144;-64
2023/09/09 06:59:58;;;;;;;7.30;6.60;;;26.30;59.10;;;;;;5026114;28;20041;-63
2023/09/09 07:02:24;;;;;;;7.70;6.93;;;26.30;58.60;;;;;;5028779;28;20086;-65
2023/09/09 07:04:50;;;;;;;8.20;7.40;;;26.40;58.70;;;;;;5011634;28;20078;-64
2023/09/09 07:07:16;;;;;;;7.90;7.10;;;26.30;58.60;;;;;;5030596;28;20037;-64
2023/09/09 07:09:42;;;;;;;7.85;6.35;;;26.30;58.70;;;;;;5032880;28;20040;-64
2023/09/09 07:12:09;;;;;;;7.13;6.43;;;26.40;58.80;;;;;;5032187;28;20026;-65
2023/09/09 07:14:35;;;;;;;7.60;6.80;;;26.40;58.80;;;;;;5001066;28;20444;-64
2023/09/09 07:17:01;;;;;;;7.80;7.00;;;26.40;58.80;;;;;;5027024;28;20049;-64
2023/09/09 07:19:27;;;;;;;7.95;7.13;;;26.40;58.70;;;;;;5033845;28;20121;-64
2023/09/09 07:21:53;;;;;;;8.63;7.25;;;26.40;58.80;;;;;;5029685;28;20119;-66
2023/09/09 07:24:19;;;;;;;7.75;7.05;;;26.40;58.80;;;;;;5032786;28;20034;-62
2023/09/09 07:26:45;;;;;;;7.53;6.75;;;26.40;58.80;;;;;;5017257;28;20056;-65
2023/09/09 07:29:11;;;;;;;7.15;6.40;;;26.40;58.80;;;;;;5040822;28;20025;-65
2023/09/09 07:31:37;;;;;;;7.45;6.75;;;26.40;58.70;;;;;;5045342;28;20025;-64
2023/09/09 07:34:02;;;;;;;7.25;6.55;;;26.40;58.80;;;;;;5048745;28;20059;-65
2023/09/09 07:36:28;;;;;;;7.13;6.43;;;26.40;58.80;;;;;;5035536;28;20449;-64
2023/09/09 07:38:55;;;;;;;7.43;6.07;;;26.40;58.90;;;;;;5033880;28;20428;-63
2023/09/09 07:41:21;;;;;;;8.02;7.13;;;26.40;59.20;;;;;;5029757;28;20033;-64
2023/09/09 07:43:48;;;;;;;8.60;7.80;;;26.40;59.30;;;;;;5039257;28;20033;-64
2023/09/09 07:46:14;;;;;;;9.05;8.15;;;26.50;59.40;;;;;;5031923;28;20084;-63
2023/09/09 07:48:41;;;;;;;8.90;8.00;;;26.50;59.40;;;;;;5034004;28;20451;-63
2023/09/09 07:51:08;;;;;;;9.43;8.02;;;26.50;59.40;;;;;;5032134;28;20029;-64
2023/09/09 07:53:33;;;;;;;9.18;8.27;;;26.50;59.50;;;;;;5011548;28;20100;-62
2023/09/09 07:55:59;;;;;;;9.70;8.70;;;26.50;59.50;;;;;;5034257;28;20060;-63
2023/09/09 07:58:25;;;;;;;10.07;8.45;;;26.50;59.50;;;;;;5043142;28;20318;-64
2023/09/09 08:01:06;;;;;;;9.13;8.23;;;26.50;59.50;;;;;;5014435;28;20113;-64
2023/09/09 08:03:32;;;;;;;9.73;8.82;;;26.50;59.50;;;;;;5044174;28;20418;-64
2023/09/09 08:06:06;;;;;;;10.07;9.07;;;26.50;59.60;;;;;;5034726;28;20033;-63
2023/09/09 08:08:37;;;;;;;9.93;8.82;;;26.50;59.60;;;;;;5032004;28;20029;-64
2023/09/09 08:11:04;;;;;;;9.55;8.55;;;26.50;59.70;;;;;;5017422;28;20064;-67
2023/09/09 08:13:31;;;;;;;11.05;9.48;;;26.50;59.70;;;;;;5047482;28;20021;-66
2023/09/09 08:15:58;;;;;;;10.52;9.43;;;26.50;59.70;;;;;;5023340;28;20034;-65
2023/09/09 08:18:24;;;;;;;10.20;9.13;;;26.60;59.80;;;;;;5039063;28;20091;-63
2023/09/09 08:20:51;;;;;;;11.05;9.85;;;26.60;59.90;;;;;;5031634;28;20402;-64
2023/09/09 08:23:18;;;;;;;11.32;10.13;;;26.60;59.80;;;;;;5034326;28;20057;-65
2023/09/09 08:25:44;;;;;;;11.15;9.82;;;26.60;59.90;;;;;;5029554;28;20064;-64
2023/09/09 08:28:11;;;;;;;10.65;9.52;;;26.60;59.90;;;;;;5030497;28;20021;-65
2023/09/09 08:30:37;;;;;;;11.70;10.48;;;26.60;59.90;;;;;;5032380;28;20452;-65
2023/09/09 08:33:03;;;;;;;11.30;9.98;;;26.60;59.90;;;;;;5043659;28;20059;-65
2023/09/09 08:35:32;;;;;;;11.50;10.30;;;26.60;60.00;;;;;;5034845;28;20052;-65
2023/09/09 08:38:00;;;;;;;11.35;10.13;;;26.60;60.00;;;;;;5032568;28;20098;-65
2023/09/09 08:40:26;;;;;;;11.60;10.05;;;26.60;60.00;;;;;;5028274;28;20309;-65
2023/09/09 08:43:07;;;;;;;12.77;10.63;;;26.60;60.30;;;;;;5036809;28;20043;-65
2023/09/09 08:46:11;;;;;;;10.05;9.00;;;26.70;60.20;;;;;;5018465;28;20055;-64
2023/09/09 08:48:40;;;;;;;9.55;8.55;;;26.70;60.20;;;;;;5029392;28;20400;-63
2023/09/09 08:51:08;;;;;;;10.77;9.48;;;26.70;60.20;;;;;;5042663;28;20090;-63
2023/09/09 08:53:36;;;;;;;9.93;8.80;;;26.70;60.30;;;;;;5029657;28;20040;-65
2023/09/09 08:56:03;;;;;;;10.15;9.05;;;26.70;60.60;;;;;;5032297;28;20057;-68
2023/09/09 08:58:29;;;;;;;10.27;9.15;;;26.70;60.80;;;;;;5032916;28;20029;-68
2023/09/09 09:00:55;;;;;;;9.52;8.63;;;26.70;60.90;;;;;;5033138;28;20030;-67
2023/09/09 09:03:21;;;;;;;10.50;9.45;;;26.80;61.10;;;;;;5040243;28;20114;-67
2023/09/09 09:05:48;;;;;;;10.40;9.30;;;26.80;61.10;;;;;;5024804;28;20048;-67
2023/09/09 09:08:13;;;;;;;9.75;8.75;;;26.80;61.20;;;;;;5038398;28;20085;-65
2023/09/09 09:10:42;;;;;;;10.50;9.07;;;26.80;61.20;;;;;;5046982;28;20043;-64
2023/09/09 09:13:08;;;;;;;10.85;9.35;;;26.80;61.30;;;;;;5044055;28;20111;-66
2023/09/09 09:15:36;;;;;;;9.80;8.48;;;26.80;61.30;;;;;;5045504;28;20037;-66
2023/09/09 09:18:02;;;;;;;9.77;8.88;;;26.80;61.40;;;;;;5040821;28;20021;-69
2023/09/09 09:20:33;;;;;;;9.50;8.50;;;26.80;61.40;;;;;;5044750;28;20355;-68
2023/09/09 09:23:03;;;;;;;9.15;8.25;;;26.80;61.40;;;;;;5044173;28;20036;-68
2023/09/09 09:25:36;;;;;;;9.60;8.65;;;26.90;61.50;;;;;;5046510;28;20026;-68
2023/09/09 09:28:03;;;;;;;12.18;8.23;;;26.90;61.40;;;;;;5039300;28;20496;-64
2023/09/09 09:30:29;;;;;;;8.90;8.00;;;26.90;61.40;;;;;;5038961;28;20079;-65
2023/09/09 09:32:56;;;;;;;8.95;8.05;;;26.90;61.40;;;;;;5046478;28;20032;-62
2023/09/09 09:35:28;;;;;;;8.10;7.30;;;26.90;61.30;;;;;;5043432;28;20025;-67
2023/09/09 09:37:57;;;;;;;8.38;7.57;;;26.90;61.90;;;;;;5043503;28;20045;-67
2023/09/09 09:40:24;;;;;;;7.03;6.30;;;26.90;61.10;;;;;;5022137;28;20470;-66
2023/09/09 09:42:51;;;;;;;7.90;7.20;;;26.90;61.00;;;;;;5047096;28;20029;-67
2023/09/09 09:45:17;;;;;;;7.20;6.43;;;27.00;61.10;;;;;;5022504;28;20068;-66
2023/09/09 09:47:47;;;;;;;7.72;6.93;;;27.00;61.10;;;;;;5039420;28;20328;-64
2023/09/09 09:50:18;;;;;;;7.95;6.25;;;27.00;61.10;;;;;;5047141;28;20020;-66
2023/09/09 09:52:59;;;;;;;7.22;6.53;;;27.00;61.10;;;;;;5040850;28;20119;-68
2023/09/09 09:55:26;;;;;;;8.32;7.45;;;27.00;61.10;;;;;;5039671;28;20037;-66
2023/09/09 09:58:06;;;;;;;7.10;6.40;;;27.00;61.10;;;;;;5041816;28;20025;-65
2023/09/09 10:00:33;;;;;;;7.88;7.18;;;27.00;61.10;;;;;;5042464;28;20335;-70
2023/09/09 10:03:01;;;;;;;7.82;7.03;;;27.00;61.00;;;;;;5035218;28;20029;-63
2023/09/09 10:05:29;;;;;;;7.40;6.70;;;27.00;61.00;;;;;;5011933;28;20424;-62
2023/09/09 10:08:17;;;;;;;8.35;6.63;;;27.10;61.00;;;;;;5028505;28;20033;-62
2023/09/09 10:11:02;;;;;;;6.70;6.00;;;27.10;61.00;;;;;;5013215;28;20345;-64
2023/09/09 10:13:37;;;;;;;8.40;7.28;;;27.10;60.90;;;;;;5033741;28;20052;-65
2023/09/09 10:16:08;;;;;;;7.70;7.00;;;27.20;60.80;;;;;;5030382;28;20415;-63
2023/09/09 10:18:36;;;;;;;9.93;7.35;;;27.20;60.70;;;;;;5029212;28;20037;-65
2023/09/09 10:21:03;;;;;;;7.18;6.47;;;27.20;60.50;;;;;;5024264;28;20479;-64
2023/09/09 10:23:29;;;;;;;7.05;6.35;;;27.20;60.30;;;;;;5025643;28;20051;-63
2023/09/09 10:25:56;;;;;;;7.07;6.38;;;27.30;60.30;;;;;;5031174;28;20025;-66
2023/09/09 10:28:24;;;;;;;7.32;6.60;;;27.20;60.10;;;;;;5028388;28;20030;-62
2023/09/09 10:30:50;;;;;;;8.00;6.20;;;27.20;59.90;;;;;;5026614;28;20022;-63
2023/09/09 10:33:20;;;;;;;7.28;6.30;;;27.20;59.70;;;;;;5026052;28;20079;-64
2023/09/09 10:35:50;;;;;;;6.10;5.50;;;27.30;59.60;;;;;;5028534;28;20033;-62
2023/09/09 10:38:17;;;;;;;6.53;5.82;;;27.30;59.40;;;;;;5030839;28;20033;-66
2023/09/09 10:40:47;;;;;;;6.80;6.00;;;27.30;59.20;;;;;;5028846;28;20021;-66
2023/09/09 10:43:14;;;;;;;6.70;6.10;;;27.30;59.10;;;;;;5027808;28;20279;-66
2023/09/09 10:45:43;;;;;;;6.45;5.68;;;27.30;59.10;;;;;;5035504;28;20032;-64
2023/09/09 10:48:11;;;;;;;6.78;6.05;;;27.30;59.00;;;;;;5029464;28;20115;-66
2023/09/09 10:50:43;;;;;;;5.78;5.28;;;27.30;59.00;;;;;;5010964;28;20021;-65
2023/09/09 10:53:29;;;;;;;6.47;5.85;;;27.30;58.90;;;;;;5030240;28;20132;-65
2023/09/09 10:56:23;;;;;;;6.80;6.03;;;27.30;58.70;;;;;;5025955;28;20123;-66
2023/09/09 10:58:50;;;;;;;;;;;27.30;58.70;;;;;;5027781;28;20049;-68
2023/09/09 11:01:28;;;;;;;6.10;5.50;;;27.30;58.70;;;;;;5031881;28;19910;-67
2023/09/09 11:03:54;;;;;;;5.70;5.20;;;27.30;58.70;;;;;;5035327;28;20128;-66
2023/09/09 11:06:30;;;;;;;5.68;5.18;;;27.40;58.70;;;;;;5039620;28;20021;-65
2023/09/09 11:09:02;;;;;;;5.80;5.30;;;27.40;58.60;;;;;;5037344;28;20421;-66
2023/09/09 11:11:42;;;;;;;6.05;5.32;;;27.50;58.50;;;;;;5034382;28;20520;-64
2023/09/09 11:14:10;;;;;;;5.72;5.13;;;27.60;58.30;;;;;;5030872;28;20029;-67
2023/09/09 11:16:36;;;;;;;5.63;5.13;;;27.70;58.20;;;;;;5031126;28;20396;-67
2023/09/09 11:19:05;;;;;;;5.07;4.68;;;27.80;57.90;;;;;;5033136;28;20094;-68
2023/09/09 11:21:33;;;;;;;5.28;4.78;;;27.90;57.70;;;;;;5011027;28;20114;-64
2023/09/09 11:24:01;;;;;;;4.60;4.20;;;28.00;57.60;;;;;;5029999;28;20044;-64
2023/09/09 11:26:30;;;;;;;5.22;4.70;;;28.20;57.50;;;;;;5013495;28;20087;-63
2023/09/09 11:28:57;;;;;;;5.18;4.60;;;28.30;57.30;;;;;;5032850;28;20499;-63
2023/09/09 11:31:25;;;;;;;5.22;4.82;;;28.40;57.20;;;;;;5032937;28;20032;-65
2023/09/09 11:33:57;;;;;;;5.15;4.65;;;28.50;57.00;;;;;;5032757;28;20151;-67
2023/09/09 11:36:24;;;;;;;4.70;4.30;;;28.60;56.90;;;;;;5035739;28;20349;-61
2023/09/09 11:38:53;;;;;;;5.28;4.78;;;28.60;56.60;;;;;;5033810;28;20383;-67
2023/09/09 11:41:24;;;;;;;4.85;4.45;;;28.70;56.50;;;;;;5031744;28;20098;-68
2023/09/09 11:44:01;;;;;;;5.43;4.93;;;28.80;56.40;;;;;;5007475;28;20033;-65
2023/09/09 11:46:43;;;;;;;4.78;4.07;;;28.90;56.20;;;;;;5033943;28;20025;-68
2023/09/09 11:49:11;;;;;;;4.95;4.40;;;28.90;55.80;;;;;;5025951;28;20120;-68
2023/09/09 11:51:38;;;;;;;4.80;4.30;;;29.00;55.60;;;;;;5030800;28;20094;-67
2023/09/09 11:54:06;;;;;;;4.63;4.10;;;29.10;55.40;;;;;;5031348;28;20026;-69
2023/09/09 11:56:33;;;;;;;4.50;4.10;;;29.10;55.20;;;;;;5032461;28;20317;-69
2023/09/09 11:59:05;;;;;;;4.10;3.75;;;29.20;55.00;;;;;;5030725;28;20185;-68
2023/09/09 12:01:45;;;;;;;4.50;4.10;;;29.20;54.70;;;;;;5007688;28;20422;-68
2023/09/09 12:04:12;;;;;;;4.53;4.13;;;29.30;54.50;;;;;;5030951;28;20107;-67
2023/09/09 12:06:45;;;;;;;4.32;3.75;;;29.30;54.20;;;;;;5030635;28;20353;-68
2023/09/09 12:09:12;;;;;;;5.03;3.90;;;29.40;53.90;;;;;;5006893;28;20063;-69
2023/09/09 12:11:42;;;;;;;4.22;3.83;;;29.40;53.70;;;;;;5029053;28;20441;-67
2023/09/09 12:14:11;;;;;;;4.55;3.80;;;29.50;53.40;;;;;;5030462;28;20037;-67
2023/09/09 12:16:38;;;;;;;4.00;3.60;;;29.50;53.10;;;;;;5033947;28;20053;-69
2023/09/09 12:19:12;;;;;;;3.58;3.28;;;29.60;52.90;;;;;;5026181;28;20381;-68
2023/09/09 12:21:51;;;;;;;3.90;3.33;;;29.60;52.40;;;;;;5039278;28;20020;-65
2023/09/09 12:24:17;;;;;;;3.75;3.45;;;29.70;52.20;;;;;;5032843;28;20152;-64
2023/09/09 12:26:53;;;;;;;3.70;3.40;;;29.70;52.20;;;;;;5030483;28;20108;-65
2023/09/09 12:29:19;;;;;;;4.00;3.60;;;29.70;52.20;;;;;;5032021;28;20044;-66
2023/09/09 12:31:57;;;;;;;3.95;3.65;;;29.70;52.30;;;;;;5010818;28;20033;-66
2023/09/09 12:34:24;;;;;;;4.20;3.58;;;29.70;52.30;;;;;;5030779;28;20186;-65
2023/09/09 12:36:55;;;;;;;3.30;3.00;;;29.70;52.30;;;;;;5026147;28;20391;-60
2023/09/09 12:39:25;;;;;;;3.67;3.38;;;29.60;52.00;;;;;;5030175;28;20120;-68
2023/09/09 12:42:05;;;;;;;4.18;3.65;;;29.60;51.50;;;;;;5030983;28;20116;-65
2023/09/09 12:44:47;;;;;;;5.05;3.55;;;29.60;51.10;;;;;;5032933;28;20052;-67
2023/09/09 12:47:18;;;;;;;5.25;3.65;;;29.50;50.70;;;;;;5031768;28;20124;-66
2023/09/09 12:49:45;;;;;;;4.20;3.80;;;29.50;50.60;;;;;;5036280;28;20108;-66